createdAt,value
2018-09-09T00:00:17.080Z,34.43
2018-09-09T00:02:50.177Z,39.50
2018-09-09T00:05:22.459Z,35.97
2018-09-09T00:07:55.333Z,43.17
2018-09-09T00:10:27.700Z,40.37
2018-09-09T00:13:00.658Z,43.73
2018-09-09T00:15:34.550Z,48.20
2018-09-09T00:21:29.119Z,54.13
2018-09-09T00:24:01.999Z,50.10
2018-09-09T00:26:35.040Z,62.57
2018-09-09T00:29:08.474Z,48.73
2018-09-09T00:31:41.695Z,50.03
2018-09-09T00:34:14.526Z,59.20
2018-09-09T00:36:47.641Z,60.70
2018-09-09T00:39:20.951Z,55.87
2018-09-09T00:41:54.296Z,55.27
2018-09-09T00:44:27.384Z,55.70
2018-09-09T00:47:00.352Z,58.37
2018-09-09T00:49:40.139Z,58.07
2018-09-09T00:52:18.700Z,63.07
2018-09-09T00:54:53.038Z,55.37
2018-09-09T00:57:26.354Z,64.70
2018-09-09T00:59:59.349Z,72.13
2018-09-09T01:02:33.773Z,61.93
2018-09-09T01:05:07.061Z,68.87
2018-09-09T01:07:39.934Z,66.53
2018-09-09T01:10:13.162Z,67.27
2018-09-09T01:12:45.971Z,93.37
2018-09-09T01:15:20.434Z,79.50
2018-09-09T01:17:53.540Z,74.37
2018-09-09T01:20:26.527Z,110.27
2018-09-09T01:22:59.951Z,152.93
2018-09-09T01:25:32.927Z,119.40
2018-09-09T01:28:06.065Z,62.67
2018-09-09T01:30:38.920Z,87.90
2018-09-09T01:33:12.010Z,48.70
2018-09-09T01:35:45.024Z,51.67
2018-09-09T01:38:18.260Z,56.47
2018-09-09T01:40:51.353Z,49.40
2018-09-09T01:43:24.367Z,51.57
2018-09-09T01:45:57.679Z,37.07
2018-09-09T01:48:30.412Z,45.43
2018-09-09T01:51:04.773Z,45.17
2018-09-09T01:53:38.067Z,24.73
2018-09-09T01:56:11.630Z,38.17
2018-09-09T01:58:47.598Z,24.27
2018-09-09T02:01:20.742Z,18.40
2018-09-09T02:07:14.294Z,11.70
2018-09-09T02:13:07.938Z,8.80
2018-09-09T02:15:41.228Z,11.30
2018-09-09T02:18:14.320Z,10.57
2018-09-09T02:20:47.659Z,9.57
2018-09-09T02:23:23.829Z,9.30
2018-09-09T02:25:56.985Z,8.37
2018-09-09T02:28:30.128Z,9.83
2018-09-09T02:31:03.190Z,9.37
2018-09-09T02:33:36.238Z,10.33
2018-09-09T02:36:17.249Z,12.40
2018-09-09T02:38:51.615Z,9.90
2018-09-09T02:41:27.601Z,12.57
2018-09-09T02:44:03.768Z,13.77
2018-09-09T02:46:38.790Z,15.03
2018-09-09T02:49:11.720Z,14.03
2018-09-09T02:51:44.461Z,12.67
2018-09-09T02:54:17.128Z,14.30
2018-09-09T02:56:50.519Z,11.53
2018-09-09T02:59:23.235Z,11.43
2018-09-09T03:01:56.913Z,16.53
2018-09-09T03:04:34.388Z,14.47
2018-09-09T03:07:07.647Z,19.53
2018-09-09T03:09:40.749Z,11.53
2018-09-09T03:12:19.405Z,12.67
2018-09-09T03:14:52.521Z,11.00
2018-09-09T03:17:25.755Z,14.20
2018-09-09T03:19:58.814Z,13.63
2018-09-09T03:22:32.013Z,11.57
2018-09-09T03:25:05.900Z,12.93
2018-09-09T03:27:38.368Z,10.93
2018-09-09T03:30:11.399Z,9.87
2018-09-09T03:32:46.461Z,14.10
2018-09-09T03:38:40.853Z,9.50
2018-09-09T03:41:26.731Z,11.40
2018-09-09T03:44:03.179Z,13.20
2018-09-09T03:46:36.165Z,10.47
2018-09-09T03:49:09.272Z,13.73
2018-09-09T03:51:41.968Z,12.47
2018-09-09T03:54:15.232Z,15.87
2018-09-09T03:56:47.979Z,23.13
2018-09-09T03:59:21.121Z,15.17
2018-09-09T04:01:53.719Z,14.57
2018-09-09T04:04:27.223Z,15.10
2018-09-09T04:07:00.945Z,16.83
2018-09-09T04:09:33.802Z,15.30
2018-09-09T04:12:07.317Z,14.43
2018-09-09T04:14:40.338Z,17.43
2018-09-09T04:17:14.096Z,16.70
2018-09-09T04:19:47.236Z,16.83
2018-09-09T04:22:19.988Z,23.73
2018-09-09T04:24:52.873Z,17.33
2018-09-09T04:27:25.995Z,18.03
2018-09-09T04:29:58.871Z,13.30
2018-09-09T04:32:31.594Z,11.20
2018-09-09T04:35:05.036Z,12.03
2018-09-09T04:37:37.745Z,13.63
2018-09-09T04:40:10.711Z,11.70
2018-09-09T04:42:43.507Z,12.37
2018-09-09T04:45:16.300Z,9.57
2018-09-09T04:47:49.389Z,14.47
2018-09-09T04:50:22.272Z,14.57
2018-09-09T04:52:55.095Z,18.50
2018-09-09T04:55:28.212Z,17.63
2018-09-09T04:58:02.537Z,21.13
2018-09-09T05:00:35.556Z,19.53
2018-09-09T05:03:08.642Z,18.83
2018-09-09T05:05:44.253Z,22.90
2018-09-09T05:08:20.684Z,18.00
2018-09-09T05:10:56.603Z,14.83
2018-09-09T05:13:34.207Z,18.17
2018-09-09T05:16:12.061Z,16.80
2018-09-09T05:22:15.789Z,15.43
2018-09-09T05:24:49.688Z,17.43
2018-09-09T05:27:22.421Z,16.00
2018-09-09T05:29:55.205Z,17.13
2018-09-09T05:33:06.699Z,18.73
2018-09-09T05:35:39.494Z,16.30
2018-09-09T05:38:12.313Z,18.57
2018-09-09T05:40:44.948Z,19.47
2018-09-09T05:43:17.842Z,22.83
2018-09-09T05:45:50.236Z,21.07
2018-09-09T05:48:22.682Z,17.53
2018-09-09T05:50:55.156Z,15.63
2018-09-09T05:53:27.585Z,19.60
2018-09-09T05:56:01.134Z,16.93
2018-09-09T05:58:33.521Z,16.77
2018-09-09T06:01:06.318Z,15.83
2018-09-09T06:03:38.812Z,22.57
2018-09-09T06:06:11.813Z,32.40
2018-09-09T06:08:44.511Z,25.47
2018-09-09T06:14:38.934Z,35.23
2018-09-09T06:17:11.962Z,33.10
2018-09-09T06:19:44.903Z,24.50
2018-09-09T06:22:18.403Z,29.83
2018-09-09T06:24:51.527Z,24.80
2018-09-09T06:27:24.931Z,22.73
2018-09-09T06:29:58.503Z,20.10
2018-09-09T06:32:31.368Z,15.87
2018-09-09T06:35:04.392Z,18.80
2018-09-09T06:37:37.256Z,14.03
2018-09-09T06:40:10.506Z,16.00
2018-09-09T06:42:44.128Z,16.67
2018-09-09T06:45:17.099Z,17.43
2018-09-09T06:47:49.975Z,12.43
2018-09-09T06:50:22.975Z,18.23
2018-09-09T06:52:56.175Z,17.43
2018-09-09T06:55:29.909Z,16.87
2018-09-09T06:58:03.050Z,21.30
2018-09-09T07:00:36.088Z,24.50
2018-09-09T07:03:09.270Z,19.00
2018-09-09T07:05:42.105Z,19.90
2018-09-09T07:08:17.645Z,18.03
2018-09-09T07:10:52.961Z,18.33
2018-09-09T07:13:28.895Z,15.00
2018-09-09T07:16:03.864Z,15.50
2018-09-09T07:18:37.343Z,15.47
2018-09-09T07:21:10.418Z,14.67
2018-09-09T07:23:43.607Z,16.00
2018-09-09T07:26:17.341Z,15.40
2018-09-09T07:28:50.803Z,16.57
2018-09-09T07:31:23.813Z,18.83
2018-09-09T07:33:57.903Z,15.27
2018-09-09T07:36:30.976Z,17.07
2018-09-09T07:39:04.611Z,15.20
2018-09-09T07:41:37.852Z,17.27
2018-09-09T07:44:10.968Z,15.00
2018-09-09T07:46:44.732Z,11.73
2018-09-09T07:49:49.605Z,12.30
2018-09-09T07:52:22.262Z,13.57
2018-09-09T07:54:55.084Z,15.43
2018-09-09T08:00:49.141Z,16.27
2018-09-09T08:03:21.949Z,16.47
2018-09-09T08:05:54.713Z,13.93
2018-09-09T08:08:27.734Z,18.70
2018-09-09T08:11:01.128Z,19.27
2018-09-09T08:13:34.310Z,18.23
2018-09-09T08:16:07.137Z,23.67
2018-09-09T08:18:40.153Z,18.97
2018-09-09T08:21:12.994Z,21.63
2018-09-09T08:23:45.988Z,19.03
2018-09-09T08:26:18.921Z,18.43
2018-09-09T08:28:51.853Z,18.53
2018-09-09T08:31:26.033Z,17.23
2018-09-09T08:33:59.024Z,21.63
2018-09-09T08:36:31.919Z,12.67
2018-09-09T08:39:05.226Z,12.87
2018-09-09T08:41:38.235Z,11.33
2018-09-09T08:44:12.444Z,11.20
2018-09-09T08:46:45.281Z,15.47
2018-09-09T08:49:18.173Z,11.50
2018-09-09T08:51:51.172Z,16.97
2018-09-09T08:54:24.560Z,14.10
2018-09-09T08:56:57.507Z,12.13
2018-09-09T08:59:30.405Z,12.47
2018-09-09T09:02:03.581Z,12.37
2018-09-09T09:04:36.816Z,14.97
2018-09-09T09:07:09.830Z,9.83
2018-09-09T09:09:42.742Z,11.93
2018-09-09T09:12:15.663Z,9.40
2018-09-09T09:14:49.759Z,10.90
2018-09-09T09:17:23.006Z,12.37
2018-09-09T09:19:56.119Z,9.53
2018-09-09T09:22:29.440Z,12.10
2018-09-09T09:25:02.404Z,11.33
2018-09-09T09:27:35.436Z,13.97
2018-09-09T09:30:08.729Z,14.43
2018-09-09T09:32:46.734Z,17.63
2018-09-09T09:38:40.013Z,17.87
2018-09-09T09:41:12.987Z,14.23
2018-09-09T09:43:45.458Z,15.97
2018-09-09T09:46:18.787Z,16.73
2018-09-09T09:48:51.762Z,17.70
2018-09-09T09:51:25.858Z,14.10
2018-09-09T09:53:58.397Z,12.27
2018-09-09T09:56:31.529Z,17.27
2018-09-09T10:02:25.667Z,17.33
2018-09-09T10:04:58.897Z,19.97
2018-09-09T10:07:31.342Z,16.77
2018-09-09T10:10:04.618Z,20.70
2018-09-09T10:12:37.464Z,16.20
2018-09-09T10:15:10.755Z,17.67
2018-09-09T10:24:25.671Z,18.27
2018-09-09T10:26:59.075Z,15.00
2018-09-09T10:29:55.434Z,13.40
2018-09-09T10:32:29.108Z,13.43
2018-09-09T10:35:01.888Z,16.30
2018-09-09T10:37:34.718Z,12.67
2018-09-09T10:40:07.836Z,12.87
2018-09-09T10:42:40.770Z,14.97
2018-09-09T10:45:13.591Z,12.83
2018-09-09T10:47:47.375Z,13.43
2018-09-09T10:50:20.171Z,16.60
2018-09-09T10:52:53.071Z,10.50
2018-09-09T10:55:25.799Z,12.07
2018-09-09T10:57:58.714Z,13.27
2018-09-09T11:00:31.247Z,12.73
2018-09-09T11:03:04.186Z,13.17
2018-09-09T11:05:37.048Z,12.93
2018-09-09T11:08:09.999Z,12.67
2018-09-09T11:10:42.776Z,14.23
2018-09-09T11:13:15.566Z,14.77
2018-09-09T11:15:48.682Z,12.40
2018-09-09T11:18:21.827Z,16.10
2018-09-09T11:20:54.827Z,15.47
2018-09-09T11:23:27.825Z,14.10
2018-09-09T11:26:01.760Z,16.60
2018-09-09T11:28:34.900Z,15.40
2018-09-09T11:31:08.036Z,18.37
2018-09-09T11:33:41.185Z,12.83
2018-09-09T11:36:13.653Z,13.07
2018-09-09T11:38:46.398Z,14.43
2018-09-09T11:41:19.554Z,17.63
2018-09-09T11:43:52.776Z,21.13
2018-09-09T11:46:25.923Z,20.40
2018-09-09T11:48:59.075Z,18.97
2018-09-09T11:51:31.978Z,19.07
2018-09-09T11:54:04.793Z,17.27
2018-09-09T11:56:37.385Z,19.33
2018-09-09T11:59:10.168Z,20.60
2018-09-09T12:01:43.108Z,17.30
2018-09-09T12:04:16.037Z,21.50
2018-09-09T12:06:49.163Z,18.23
2018-09-09T12:09:22.759Z,13.80
2018-09-09T12:11:56.423Z,13.87
2018-09-09T12:14:29.228Z,13.43
2018-09-09T12:17:02.589Z,14.33
2018-09-09T12:19:35.850Z,10.20
2018-09-09T12:22:09.583Z,12.50
2018-09-09T12:24:42.050Z,9.63
2018-09-09T12:27:14.660Z,11.83
2018-09-09T12:29:47.445Z,11.27
2018-09-09T12:32:20.601Z,11.93
2018-09-09T12:34:53.439Z,18.80
2018-09-09T12:37:26.581Z,12.73
2018-09-09T12:39:59.354Z,12.47
2018-09-09T12:42:33.453Z,11.30
2018-09-09T12:45:10.612Z,11.43
2018-09-09T12:47:57.293Z,10.40
2018-09-09T12:50:46.232Z,10.90
2018-09-09T12:53:21.207Z,13.63
2018-09-09T12:55:54.585Z,16.83
2018-09-09T12:58:27.663Z,14.93
2018-09-09T13:01:01.315Z,14.77
2018-09-09T13:03:36.646Z,12.67
2018-09-09T13:06:09.370Z,13.87
2018-09-09T13:08:42.232Z,10.53
2018-09-09T13:11:14.841Z,13.13
2018-09-09T13:13:47.459Z,13.33
2018-09-09T13:16:20.027Z,14.30
2018-09-09T13:18:53.250Z,8.10
2018-09-09T13:21:26.161Z,10.83
2018-09-09T13:23:59.232Z,8.20
2018-09-09T13:29:52.374Z,10.50
2018-09-09T13:32:24.734Z,13.43
2018-09-09T13:34:57.185Z,12.90
2018-09-09T13:37:29.551Z,17.10
2018-09-09T13:40:01.973Z,10.83
2018-09-09T13:42:34.632Z,9.87
2018-09-09T13:45:09.463Z,12.23
2018-09-09T13:47:42.542Z,13.50
2018-09-09T13:50:15.641Z,10.67
2018-09-09T13:52:48.203Z,6.57
2018-09-09T13:55:20.912Z,13.93
2018-09-09T13:57:54.011Z,9.03
2018-09-09T14:00:27.044Z,8.40
2018-09-09T14:02:59.740Z,11.37
2018-09-09T14:05:32.079Z,8.73
2018-09-09T14:08:04.633Z,4.30
2018-09-09T14:10:36.930Z,7.90
2018-09-09T14:13:09.210Z,7.57
2018-09-09T14:15:41.604Z,6.47
2018-09-09T14:18:14.291Z,10.03
2018-09-09T14:20:46.965Z,22.40
2018-09-09T14:23:19.895Z,12.50
2018-09-09T14:25:53.151Z,14.07
2018-09-09T14:28:25.710Z,8.97
2018-09-09T14:30:59.042Z,14.87
2018-09-09T14:33:31.459Z,12.07
2018-09-09T14:36:04.156Z,10.55
2018-09-09T14:38:37.966Z,7.70
2018-09-09T14:41:10.945Z,7.05
2018-09-09T14:43:43.821Z,8.10
2018-09-09T14:46:17.455Z,8.28
2018-09-09T14:48:51.594Z,7.10
2018-09-09T14:51:24.869Z,9.68
2018-09-09T14:53:57.864Z,5.65
2018-09-09T14:56:30.767Z,7.00
2018-09-09T14:59:03.237Z,7.47
2018-09-09T15:01:35.696Z,9.78
2018-09-09T15:04:35.382Z,5.20
2018-09-09T15:07:09.083Z,6.90
2018-09-09T15:09:44.616Z,5.17
2018-09-09T15:15:38.665Z,5.17
2018-09-09T15:18:11.669Z,7.10
2018-09-09T15:20:44.893Z,5.35
2018-09-09T15:23:17.856Z,4.42
2018-09-09T15:25:51.175Z,6.45
2018-09-09T15:28:24.217Z,10.50
2018-09-09T15:30:59.004Z,2.83
2018-09-09T15:33:32.356Z,5.75
2018-09-09T15:36:05.431Z,3.10
2018-09-09T15:38:38.446Z,3.85
2018-09-09T15:41:11.050Z,7.67
2018-09-09T15:43:44.088Z,3.50
2018-09-09T15:46:17.035Z,5.22
2018-09-09T15:48:50.047Z,3.92
2018-09-09T15:51:23.285Z,3.05
2018-09-09T15:53:56.580Z,4.28
2018-09-09T15:56:29.378Z,3.62
2018-09-09T15:59:02.708Z,5.97
2018-09-09T16:01:36.668Z,9.00
2018-09-09T16:04:10.193Z,4.15
2018-09-09T16:06:43.475Z,5.75
2018-09-09T16:09:16.400Z,6.20
2018-09-09T16:11:49.881Z,4.83
2018-09-09T16:14:23.068Z,2.65
2018-09-09T16:16:57.384Z,4.75
2018-09-09T16:19:30.619Z,2.65
2018-09-09T16:22:03.636Z,4.22
2018-09-09T16:24:38.264Z,3.20
2018-09-09T16:27:10.963Z,3.95
2018-09-09T16:29:44.950Z,3.50
2018-09-09T16:32:22.465Z,3.08
2018-09-09T16:34:58.176Z,6.15
2018-09-09T16:37:34.173Z,4.67
2018-09-09T16:43:30.239Z,6.97
2018-09-09T16:46:05.726Z,5.37
2018-09-09T16:52:04.961Z,6.03
2018-09-09T16:58:07.898Z,5.03
2018-09-09T17:00:40.240Z,3.75
2018-09-09T17:03:14.292Z,4.33
2018-09-09T17:06:20.202Z,4.45
2018-09-09T17:08:55.727Z,4.40
2018-09-09T17:11:31.490Z,6.75
2018-09-09T17:14:07.219Z,4.78
2018-09-09T17:16:40.836Z,5.62
2018-09-09T17:19:14.320Z,11.90
2018-09-09T17:21:50.356Z,9.65
2018-09-09T17:24:23.864Z,10.82
2018-09-09T17:26:58.719Z,5.15
2018-09-09T17:29:33.115Z,5.85
2018-09-09T17:32:11.135Z,8.93
2018-09-09T17:34:44.211Z,13.25
2018-09-09T17:37:18.053Z,23.50
2018-09-09T17:39:52.452Z,12.53
2018-09-09T17:42:25.817Z,14.38
2018-09-09T17:44:59.597Z,11.73
2018-09-09T17:47:33.031Z,9.90
2018-09-09T17:50:06.684Z,9.95
2018-09-09T17:52:40.423Z,12.25
2018-09-09T17:55:14.574Z,23.50
2018-09-09T17:57:47.745Z,15.23
2018-09-09T18:00:21.455Z,11.05
2018-09-09T18:02:56.715Z,18.00
2018-09-09T18:05:31.300Z,14.40
2018-09-09T18:08:05.037Z,10.82
2018-09-09T18:10:44.157Z,12.37
2018-09-09T18:13:18.399Z,18.07
2018-09-09T18:15:55.017Z,14.33
2018-09-09T18:18:30.156Z,11.97
2018-09-09T18:21:04.270Z,12.20
2018-09-09T18:23:37.954Z,12.88
2018-09-09T18:26:11.618Z,16.70
2018-09-09T18:28:44.934Z,18.07
2018-09-09T18:31:18.859Z,26.40
2018-09-09T18:33:51.746Z,22.70
2018-09-09T18:36:25.333Z,31.07
2018-09-09T18:39:00.830Z,30.17
2018-09-09T18:41:36.520Z,30.60
2018-09-09T18:44:09.759Z,28.97
2018-09-09T18:46:43.244Z,40.07
2018-09-09T18:49:18.546Z,44.10
2018-09-09T18:51:52.376Z,30.93
2018-09-09T18:54:25.907Z,32.53
2018-09-09T18:56:59.312Z,30.30
2018-09-09T18:59:32.780Z,34.20
2018-09-09T19:02:06.268Z,31.70
2018-09-09T19:04:39.531Z,29.40
2018-09-09T19:07:38.175Z,40.90
2018-09-09T19:10:11.051Z,35.47
2018-09-09T19:12:45.130Z,32.47
2018-09-09T19:15:19.405Z,35.17
2018-09-09T19:18:07.923Z,33.73
2018-09-09T19:20:44.847Z,84.23
2018-09-09T19:23:17.538Z,42.20
2018-09-09T19:25:52.188Z,45.13
2018-09-09T19:28:31.110Z,38.50
2018-09-09T19:31:04.134Z,31.90
2018-09-09T19:33:36.913Z,31.73
2018-09-09T19:36:10.073Z,31.03
2018-09-09T19:38:42.829Z,30.77
2018-09-09T19:42:00.196Z,30.05
2018-09-09T19:44:33.866Z,36.38
2018-09-09T19:47:07.175Z,27.73
2018-09-09T19:53:03.769Z,21.10
2018-09-09T19:55:36.554Z,22.30
2018-09-09T19:58:09.604Z,19.10
2018-09-09T20:00:43.949Z,18.85
2018-09-09T20:03:17.508Z,23.52
2018-09-09T20:05:50.304Z,23.57
2018-09-09T20:08:23.215Z,21.40
2018-09-09T20:10:56.882Z,23.12
2018-09-09T20:13:30.375Z,22.17
2018-09-09T20:16:03.282Z,16.35
2018-09-09T20:18:36.524Z,23.15
2018-09-09T20:21:09.948Z,21.73
2018-09-09T20:23:43.275Z,29.27
2018-09-09T20:26:16.191Z,25.75
2018-09-09T20:28:50.569Z,22.90
2018-09-09T20:31:24.050Z,26.57
2018-09-09T20:33:59.532Z,22.80
2018-09-09T20:36:32.572Z,26.12
2018-09-09T20:39:05.764Z,31.50
2018-09-09T20:41:40.783Z,26.33
2018-09-09T20:44:14.209Z,42.98
2018-09-09T20:46:47.309Z,32.78
2018-09-09T20:49:20.472Z,27.65
2018-09-09T20:51:54.333Z,27.48
2018-09-09T20:54:27.792Z,24.35
2018-09-09T20:57:00.670Z,28.73
2018-09-09T20:59:34.041Z,26.10
2018-09-09T21:02:10.833Z,32.50
2018-09-09T21:04:49.213Z,35.35
2018-09-09T21:07:25.364Z,33.25
2018-09-09T21:10:02.483Z,33.33
2018-09-09T21:12:35.704Z,34.00
2018-09-09T21:15:09.720Z,31.95
2018-09-09T21:17:43.012Z,35.08
2018-09-09T21:20:15.896Z,35.52
2018-09-09T21:22:49.251Z,35.50
2018-09-09T21:25:22.883Z,38.50
2018-09-09T21:27:56.064Z,32.65
2018-09-09T21:30:29.961Z,32.23
2018-09-09T21:33:03.172Z,34.48
2018-09-09T21:35:36.520Z,35.00
2018-09-09T21:41:31.491Z,44.77
2018-09-09T21:44:04.282Z,39.67
2018-09-09T21:46:37.449Z,44.87
2018-09-09T21:49:10.811Z,51.50
2018-09-09T21:51:46.466Z,71.90
2018-09-09T21:54:19.610Z,57.40
2018-09-09T21:56:52.728Z,51.53
2018-09-09T21:59:26.054Z,57.77
2018-09-09T22:02:06.751Z,55.27
2018-09-09T22:04:40.651Z,61.30
2018-09-09T22:07:15.998Z,69.93
2018-09-09T22:09:48.872Z,71.23
2018-09-09T22:12:22.060Z,62.97
2018-09-09T22:14:55.291Z,69.47
2018-09-09T22:17:28.338Z,62.10
2018-09-09T22:20:01.761Z,68.90
2018-09-09T22:22:35.392Z,75.40
2018-09-09T22:25:08.442Z,67.80
2018-09-09T22:27:41.421Z,71.80
2018-09-09T22:30:14.578Z,82.23
2018-09-09T22:32:47.768Z,72.10
2018-09-09T22:35:21.261Z,85.93
2018-09-09T22:37:54.224Z,87.10
2018-09-09T22:40:27.284Z,81.80
2018-09-09T22:43:01.809Z,114.70
2018-09-09T22:45:37.089Z,88.93
2018-09-09T22:48:10.463Z,115.07
2018-09-09T22:50:44.468Z,115.40
2018-09-09T22:53:18.101Z,125.57
2018-09-09T22:55:51.835Z,133.00
2018-09-09T22:58:24.917Z,139.63
2018-09-09T23:00:58.167Z,147.40
2018-09-09T23:03:41.099Z,143.27
2018-09-09T23:06:14.709Z,150.03
2018-09-09T23:08:47.802Z,142.17
2018-09-09T23:11:20.941Z,119.10
2018-09-09T23:13:54.112Z,106.40
2018-09-09T23:16:27.222Z,95.83
2018-09-09T23:19:00.721Z,91.17
2018-09-09T23:21:33.869Z,104.07
2018-09-09T23:24:07.054Z,94.37
2018-09-09T23:26:40.316Z,83.67
2018-09-09T23:29:13.532Z,83.80
2018-09-09T23:31:46.873Z,80.23
2018-09-09T23:34:20.157Z,62.37
2018-09-09T23:36:53.361Z,71.07
2018-09-09T23:39:26.461Z,62.37
2018-09-09T23:41:59.362Z,45.77
2018-09-09T23:44:32.562Z,39.87
2018-09-09T23:47:05.874Z,35.93
2018-09-09T23:49:38.893Z,39.47
2018-09-09T23:52:12.426Z,32.87
2018-09-09T23:54:45.165Z,33.47
2018-09-09T23:57:58.641Z,27.13
